Time;durP1;ratioP1;P1;durP2;ratioP2;P2;SDS_P1;SDS_P2;PMS_P1;PMS_P2;Temp;Humidity;BMP_temperature;BMP_pressure;BME280_temperature;BME280_humidity;BME280_pressure;Samples;Min_cycle;Max_cycle;Signal;HPM_P1;HPM_P2
2021/11/20 00:01:46;;;;;;;33.75;20.88;;;6.60;99.90;;;;;;2007973;71;21104;-76
2021/11/20 00:04:12;;;;;;;34.95;21.57;;;6.60;99.90;;;;;;2013452;71;21140;-75
2021/11/20 00:06:38;;;;;;;31.70;20.62;;;6.50;99.90;;;;;;2002451;71;21502;-76
2021/11/20 00:09:04;;;;;;;32.00;21.45;;;6.70;99.90;;;;;;1996903;71;21081;-76
2021/11/20 00:11:30;;;;;;;34.27;21.15;;;6.70;99.90;;;;;;2000241;71;21466;-76
2021/11/20 00:13:56;;;;;;;34.90;20.65;;;6.60;99.90;;;;;;1995115;71;21555;-75
2021/11/20 00:16:23;;;;;;;32.25;19.10;;;6.60;99.90;;;;;;2004635;71;21670;-74
2021/11/20 00:18:50;;;;;;;30.85;20.43;;;6.60;99.90;;;;;;1995104;71;21199;-75
2021/11/20 00:21:16;;;;;;;35.65;20.17;;;6.50;99.90;;;;;;2011955;70;21198;-75
2021/11/20 00:23:42;;;;;;;34.13;19.35;;;6.60;99.90;;;;;;2007855;70;21126;-76
2021/11/20 00:26:09;;;;;;;31.70;19.42;;;6.60;99.90;;;;;;2007200;71;21059;-76
2021/11/20 00:28:42;;;;;;;31.97;18.50;;;6.50;99.90;;;;;;2007905;70;21055;-75
2021/11/20 00:31:08;;;;;;;36.53;20.45;;;6.70;99.90;;;;;;2006789;70;21115;-75
2021/11/20 00:33:36;;;;;;;30.88;19.37;;;6.60;99.90;;;;;;2014541;70;21054;-75
2021/11/20 00:36:02;;;;;;;30.23;19.67;;;6.70;99.90;;;;;;2000820;70;21120;-75
2021/11/20 00:38:28;;;;;;;35.05;19.25;;;6.60;99.90;;;;;;2013827;70;21133;-75
2021/11/20 00:40:55;;;;;;;30.62;18.77;;;6.70;99.90;;;;;;2007857;71;21120;-75
2021/11/20 00:43:21;;;;;;;33.67;19.57;;;6.80;99.90;;;;;;2004257;70;21058;-75
2021/11/20 00:45:47;;;;;;;31.10;19.42;;;6.70;99.90;;;;;;2009090;70;21128;-74
2021/11/20 00:48:14;;;;;;;31.33;18.40;;;6.70;99.90;;;;;;2007464;70;21188;-76
2021/11/20 00:50:40;;;;;;;28.52;17.75;;;6.60;99.90;;;;;;2004858;71;21135;-74
2021/11/20 00:53:06;;;;;;;23.73;17.12;;;6.80;99.90;;;;;;1996559;71;21478;-75
2021/11/20 00:55:32;;;;;;;28.20;18.17;;;6.80;99.90;;;;;;2003852;71;21542;-75
2021/11/20 00:57:58;;;;;;;30.82;18.42;;;6.80;99.90;;;;;;2008662;70;21411;-75
2021/11/20 01:00:24;;;;;;;28.02;17.62;;;6.70;99.90;;;;;;1995170;70;22570;-76
2021/11/20 01:02:50;;;;;;;39.25;18.48;;;6.60;99.90;;;;;;2002243;71;21502;-75
2021/11/20 01:05:16;;;;;;;29.98;17.35;;;6.60;99.90;;;;;;2004869;70;21046;-76
2021/11/20 01:07:42;;;;;;;26.07;17.02;;;6.60;99.90;;;;;;2007532;70;21028;-76
2021/11/20 01:10:09;;;;;;;31.68;17.48;;;6.70;99.90;;;;;;2001058;70;21140;-76
2021/11/20 01:12:35;;;;;;;27.55;15.55;;;6.80;99.90;;;;;;2005333;71;21067;-76
2021/11/20 01:15:01;;;;;;;25.17;15.78;;;6.80;99.90;;;;;;2001219;70;21119;-76
2021/11/20 01:17:27;;;;;;;26.65;15.95;;;6.80;99.90;;;;;;2008373;71;21053;-76
2021/11/20 01:19:53;;;;;;;24.20;15.78;;;6.80;99.90;;;;;;2001295;71;21131;-76
2021/11/20 01:22:19;;;;;;;22.82;15.32;;;6.80;99.90;;;;;;2009087;70;21127;-75
2021/11/20 01:24:46;;;;;;;21.85;14.13;;;6.80;99.90;;;;;;2000031;70;21136;-75
2021/11/20 01:27:12;;;;;;;24.47;15.05;;;6.80;99.90;;;;;;2001807;71;21058;-76
2021/11/20 01:29:38;;;;;;;21.52;15.55;;;6.80;99.90;;;;;;2003410;71;21121;-76
2021/11/20 01:32:04;;;;;;;23.20;15.45;;;6.70;99.90;;;;;;1992913;70;21086;-75
2021/11/20 01:34:30;;;;;;;19.82;14.20;;;6.70;99.90;;;;;;2014145;70;21173;-75
2021/11/20 01:36:56;;;;;;;21.85;14.73;;;6.80;99.90;;;;;;2016448;70;21093;-75
2021/11/20 01:39:25;;;;;;;19.73;14.25;;;6.80;99.90;;;;;;2009722;70;21028;-75
2021/11/20 01:41:50;;;;;;;21.77;14.30;;;6.80;99.90;;;;;;2002851;71;21089;-76
2021/11/20 01:44:17;;;;;;;21.77;15.20;;;6.70;99.90;;;;;;2013030;69;21135;-76
2021/11/20 01:46:43;;;;;;;26.68;14.30;;;6.80;99.90;;;;;;2001841;70;21046;-76
2021/11/20 01:49:09;;;;;;;22.58;14.25;;;6.90;99.90;;;;;;2007863;71;21486;-76
2021/11/20 01:51:35;;;;;;;20.95;14.53;;;6.90;99.90;;;;;;1998740;70;21047;-76
2021/11/20 01:54:01;;;;;;;21.45;14.30;;;6.90;99.90;;;;;;1996595;70;21058;-76
2021/11/20 01:56:27;;;;;;;21.90;14.40;;;6.90;99.90;;;;;;2002267;70;21132;-76
2021/11/20 01:58:54;;;;;;;21.10;14.65;;;6.80;99.90;;;;;;1999670;70;21019;-76
2021/11/20 02:01:21;;;;;;;20.90;14.43;;;6.80;99.90;;;;;;1997353;70;21058;-75
2021/11/20 02:03:47;;;;;;;22.35;15.38;;;6.80;99.90;;;;;;2004877;70;21238;-75
2021/11/20 02:06:13;;;;;;;20.77;14.98;;;6.80;99.90;;;;;;1999641;70;21050;-75
2021/11/20 02:08:39;;;;;;;19.55;14.68;;;6.80;99.90;;;;;;2016244;71;21019;-75
2021/11/20 02:11:05;;;;;;;25.75;15.60;;;6.80;99.90;;;;;;2002923;70;21128;-76
2021/11/20 02:13:32;;;;;;;23.10;15.70;;;6.70;99.90;;;;;;2004381;70;21049;-77
2021/11/20 02:15:59;;;;;;;23.30;16.15;;;6.70;99.90;;;;;;1996171;70;21120;-77
2021/11/20 02:18:26;;;;;;;20.70;14.95;;;6.70;99.90;;;;;;1996340;71;21067;-77
2021/11/20 02:20:52;;;;;;;19.65;14.78;;;6.60;99.90;;;;;;2003148;70;21035;-77
2021/11/20 02:23:18;;;;;;;24.12;16.07;;;6.70;99.90;;;;;;2003697;70;21057;-77
2021/11/20 02:25:44;;;;;;;18.90;14.20;;;6.70;99.90;;;;;;2014747;70;21133;-77
2021/11/20 02:28:11;;;;;;;23.07;15.10;;;6.70;99.90;;;;;;2003963;70;21130;-77
2021/11/20 02:30:37;;;;;;;26.50;15.50;;;6.70;99.90;;;;;;1958816;72;21196;-78
2021/11/20 02:33:03;;;;;;;20.55;14.58;;;6.70;99.90;;;;;;1907587;74;21054;-77
2021/11/20 02:35:29;;;;;;;28.98;16.35;;;6.80;99.90;;;;;;1904764;74;21346;-78
2021/11/20 02:37:55;;;;;;;24.32;15.65;;;6.70;99.90;;;;;;1915619;73;21084;-77
2021/11/20 02:40:21;;;;;;;25.02;15.32;;;6.80;99.90;;;;;;1914132;75;21146;-77
2021/11/20 02:42:47;;;;;;;20.68;15.10;;;6.70;99.90;;;;;;1913475;74;21077;-77
2021/11/20 02:45:13;;;;;;;25.80;15.23;;;6.70;99.90;;;;;;1907674;74;21069;-76
2021/11/20 02:47:40;;;;;;;22.50;15.75;;;6.60;99.90;;;;;;1908607;74;21142;-77
2021/11/20 02:50:06;;;;;;;22.67;15.90;;;6.70;99.90;;;;;;1914439;73;21089;-77
2021/11/20 02:52:32;;;;;;;25.15;15.83;;;6.80;99.90;;;;;;1913591;74;21567;-77
2021/11/20 02:54:58;;;;;;;21.95;15.15;;;6.70;99.90;;;;;;1913274;73;21565;-78
2021/11/20 02:57:24;;;;;;;25.45;15.55;;;6.60;99.90;;;;;;1905041;74;21065;-78
2021/11/20 02:59:50;;;;;;;23.57;15.50;;;6.60;99.90;;;;;;1912745;75;21150;-77
2021/11/20 03:02:16;;;;;;;22.87;14.90;;;6.60;99.90;;;;;;1915297;74;21078;-77
2021/11/20 03:04:42;;;;;;;23.90;14.65;;;6.60;99.90;;;;;;1910046;74;21168;-77
2021/11/20 03:07:09;;;;;;;23.32;14.33;;;6.60;99.90;;;;;;1906838;73;21075;-77
2021/11/20 03:09:35;;;;;;;19.62;14.75;;;6.70;99.90;;;;;;1913463;75;21138;-77
2021/11/20 03:12:01;;;;;;;19.25;14.40;;;6.70;99.90;;;;;;1915276;73;21131;-77
2021/11/20 03:14:27;;;;;;;23.60;15.72;;;6.60;99.90;;;;;;1917731;74;21049;-77
2021/11/20 03:16:53;;;;;;;19.37;14.60;;;6.50;99.90;;;;;;1908164;73;21154;-75
2021/11/20 03:19:19;;;;;;;19.45;13.75;;;6.60;99.90;;;;;;1907433;74;21201;-77
2021/11/20 03:21:45;;;;;;;20.95;14.65;;;6.70;99.90;;;;;;1909828;74;21080;-76
2021/11/20 03:24:12;;;;;;;20.75;14.07;;;6.70;99.90;;;;;;1909923;75;21053;-76
2021/11/20 03:26:38;;;;;;;21.07;14.78;;;6.60;99.90;;;;;;1903004;73;21050;-77
2021/11/20 03:29:04;;;;;;;21.30;15.32;;;6.60;99.90;;;;;;1905835;74;21050;-76
2021/11/20 03:31:30;;;;;;;22.90;14.98;;;6.60;99.90;;;;;;1914492;74;21281;-77
2021/11/20 03:33:56;;;;;;;23.47;14.98;;;6.60;99.90;;;;;;1912370;74;21194;-77
2021/11/20 03:36:22;;;;;;;17.87;14.10;;;6.60;99.90;;;;;;1912019;74;21658;-77
2021/11/20 03:38:48;;;;;;;21.17;14.60;;;6.70;99.90;;;;;;1912507;74;21104;-76
2021/11/20 03:41:14;;;;;;;23.30;13.75;;;6.80;99.90;;;;;;1914267;74;21069;-76
2021/11/20 03:43:41;;;;;;;19.05;14.73;;;6.80;99.90;;;;;;1911711;73;21154;-77
2021/11/20 03:46:07;;;;;;;20.85;13.50;;;6.70;99.90;;;;;;1903903;73;21078;-76
2021/11/20 03:48:33;;;;;;;20.60;13.93;;;6.70;99.90;;;;;;1901864;74;21186;-77
2021/11/20 03:50:59;;;;;;;20.35;13.22;;;6.80;99.90;;;;;;1914843;74;21303;-77
2021/11/20 03:53:25;;;;;;;16.80;13.43;;;6.70;99.90;;;;;;1912937;74;21480;-77
2021/11/20 03:55:51;;;;;;;20.90;13.60;;;6.70;99.90;;;;;;1910530;74;21513;-77
2021/11/20 03:58:22;;;;;;;18.40;12.93;;;6.60;99.90;;;;;;1908348;74;21549;-77
2021/11/20 04:00:45;;;;;;;19.40;13.30;;;6.70;99.90;;;;;;1906905;74;21163;-76
2021/11/20 04:03:12;;;;;;;24.72;14.75;;;6.70;99.90;;;;;;1911635;74;21080;-77
2021/11/20 04:05:38;;;;;;;22.00;14.53;;;6.70;99.90;;;;;;1908940;73;21149;-78
2021/11/20 04:08:04;;;;;;;20.32;13.75;;;6.60;99.90;;;;;;1912964;73;21046;-77
2021/11/20 04:10:31;;;;;;;21.17;14.75;;;6.60;99.90;;;;;;1911306;74;21069;-78
2021/11/20 04:12:57;;;;;;;22.55;14.55;;;6.50;99.90;;;;;;1899579;74;21084;-78
2021/11/20 04:15:23;;;;;;;21.70;14.78;;;6.50;99.90;;;;;;1912401;74;21146;-77
2021/11/20 04:17:49;;;;;;;20.88;14.47;;;6.50;99.90;;;;;;1914457;73;21041;-77
2021/11/20 04:20:15;;;;;;;23.10;14.43;;;6.50;99.90;;;;;;1910489;74;21072;-76
2021/11/20 04:22:41;;;;;;;21.00;14.58;;;6.50;99.90;;;;;;1909127;74;21150;-77
2021/11/20 04:25:07;;;;;;;23.15;15.28;;;6.60;99.90;;;;;;1912443;73;21150;-77
2021/11/20 04:27:33;;;;;;;19.98;14.63;;;6.60;99.90;;;;;;1908178;73;21053;-77
2021/11/20 04:30:00;;;;;;;26.07;15.23;;;6.60;99.90;;;;;;1914459;74;21520;-77
2021/11/20 04:32:26;;;;;;;26.27;15.48;;;6.50;99.90;;;;;;1911958;74;21707;-76
2021/11/20 04:34:52;;;;;;;22.85;15.28;;;6.60;99.90;;;;;;1909908;73;21080;-77
2021/11/20 04:37:18;;;;;;;22.07;15.18;;;6.60;99.90;;;;;;1914021;73;21074;-77
2021/11/20 04:39:44;;;;;;;23.10;15.78;;;6.60;99.90;;;;;;1911490;73;21053;-77
2021/11/20 04:42:10;;;;;;;27.27;15.45;;;6.50;99.90;;;;;;1914401;74;21068;-77
2021/11/20 04:44:36;;;;;;;26.75;15.45;;;6.50;99.90;;;;;;1910698;74;21155;-76
2021/11/20 04:47:02;;;;;;;25.37;15.75;;;6.50;99.90;;;;;;1908344;74;21141;-76
2021/11/20 04:49:29;;;;;;;24.63;16.97;;;6.50;99.90;;;;;;1911322;73;21147;-77
2021/11/20 04:51:55;;;;;;;25.12;16.20;;;6.50;99.90;;;;;;1909997;74;21131;-77
2021/11/20 04:54:21;;;;;;;25.00;16.32;;;6.50;99.90;;;;;;1913249;74;21138;-77
2021/11/20 04:56:47;;;;;;;20.77;15.10;;;6.50;99.90;;;;;;1913399;74;21082;-77
2021/11/20 04:59:13;;;;;;;27.25;16.25;;;6.50;99.90;;;;;;1914579;74;21138;-76
2021/11/20 05:01:40;;;;;;;23.12;15.65;;;6.50;99.90;;;;;;1915657;73;21260;-76
2021/11/20 05:04:06;;;;;;;22.82;15.30;;;6.50;99.90;;;;;;1911369;74;21157;-76
2021/11/20 05:06:33;;;;;;;27.85;16.00;;;6.50;99.90;;;;;;1911030;74;21080;-76
2021/11/20 05:09:00;;;;;;;27.48;16.00;;;6.50;99.90;;;;;;1911006;74;21228;-78
2021/11/20 05:11:26;;;;;;;23.80;16.65;;;6.50;99.90;;;;;;1914444;74;21164;-78
2021/11/20 05:13:52;;;;;;;26.55;17.07;;;6.50;99.90;;;;;;1914714;73;21060;-76
2021/11/20 05:16:18;;;;;;;26.02;16.50;;;6.50;99.90;;;;;;1909736;74;21158;-77
2021/11/20 05:18:44;;;;;;;28.20;17.35;;;6.50;99.90;;;;;;1911460;74;21077;-77
2021/11/20 05:21:10;;;;;;;22.85;15.83;;;6.50;99.90;;;;;;1909564;74;21115;-77
2021/11/20 05:23:36;;;;;;;34.15;17.10;;;6.50;99.90;;;;;;1912179;73;21084;-76
2021/11/20 05:26:02;;;;;;;25.72;16.40;;;6.50;99.90;;;;;;1914373;74;21142;-76
2021/11/20 05:28:29;;;;;;;28.67;17.40;;;6.50;99.90;;;;;;1911429;74;21076;-77
2021/11/20 05:30:55;;;;;;;24.43;16.37;;;6.50;99.90;;;;;;1909383;74;21245;-77
2021/11/20 05:33:21;;;;;;;26.93;16.30;;;6.50;99.90;;;;;;1913248;73;21185;-77
2021/11/20 05:35:47;;;;;;;32.90;16.60;;;6.50;99.90;;;;;;1909479;73;21080;-76
2021/11/20 05:38:13;;;;;;;27.52;16.35;;;6.50;99.90;;;;;;1910208;74;21069;-77
2021/11/20 05:40:39;;;;;;;27.13;16.48;;;6.50;99.90;;;;;;1910883;74;21123;-77
2021/11/20 05:43:05;;;;;;;23.62;15.88;;;6.50;99.90;;;;;;1902792;74;21167;-77
2021/11/20 05:45:31;;;;;;;24.85;16.52;;;6.50;99.90;;;;;;1914232;74;21153;-77
2021/11/20 05:47:58;;;;;;;31.60;17.60;;;6.50;99.90;;;;;;1908366;74;21084;-77
2021/11/20 05:50:24;;;;;;;23.67;16.07;;;6.50;99.90;;;;;;1910113;74;21127;-77
2021/11/20 05:52:50;;;;;;;28.92;16.23;;;6.50;99.90;;;;;;1904920;73;21069;-78
2021/11/20 05:55:16;;;;;;;25.55;15.90;;;6.50;99.90;;;;;;1907915;74;21089;-78
2021/11/20 05:57:42;;;;;;;26.45;16.90;;;6.40;99.90;;;;;;1912002;74;21210;-77
2021/11/20 06:00:08;;;;;;;28.23;16.25;;;6.40;99.90;;;;;;1912022;74;21446;-77
2021/11/20 06:02:34;;;;;;;23.55;15.40;;;6.50;99.90;;;;;;1914218;74;21681;-76
2021/11/20 06:05:00;;;;;;;24.18;16.52;;;6.60;99.90;;;;;;1910246;74;21553;-75
2021/11/20 06:07:29;;;;;;;24.77;14.43;;;6.60;99.90;;;;;;1908849;74;21488;-78
2021/11/20 06:09:54;;;;;;;25.05;16.30;;;6.60;99.90;;;;;;1924145;73;21151;-78
2021/11/20 06:12:20;;;;;;;30.37;17.30;;;6.50;99.90;;;;;;1933923;72;21148;-79
2021/11/20 06:14:47;;;;;;;33.42;18.23;;;6.50;99.90;;;;;;1956932;72;21145;-80
2021/11/20 06:17:13;;;;;;;32.40;18.62;;;6.50;99.90;;;;;;1959448;72;21043;-80
2021/11/20 06:19:39;;;;;;;27.52;17.12;;;6.50;99.90;;;;;;1950759;72;21469;-80
2021/11/20 06:22:05;;;;;;;24.07;16.62;;;6.40;99.90;;;;;;1947224;72;21568;-79
2021/11/20 06:24:32;;;;;;;25.60;17.70;;;6.50;99.90;;;;;;1937087;72;21065;-78
2021/11/20 06:26:58;;;;;;;33.45;17.42;;;6.50;99.90;;;;;;1948630;72;21065;-78
2021/11/20 06:29:24;;;;;;;27.55;16.77;;;6.50;99.90;;;;;;1958624;72;21069;-77
2021/11/20 06:31:50;;;;;;;24.65;15.65;;;6.50;99.90;;;;;;1911776;73;21187;-80
2021/11/20 06:34:16;;;;;;;31.10;17.65;;;6.50;99.90;;;;;;1905056;74;21484;-79
2021/11/20 06:36:42;;;;;;;25.37;16.82;;;6.50;99.90;;;;;;1913314;74;21460;-79
2021/11/20 06:39:09;;;;;;;26.77;18.52;;;6.50;99.90;;;;;;1916120;73;21456;-78
2021/11/20 06:41:35;;;;;;;26.55;17.45;;;6.50;99.90;;;;;;1953515;72;21207;-79
2021/11/20 06:44:02;;;;;;;29.60;17.40;;;6.50;99.90;;;;;;1927506;73;21044;-79
2021/11/20 06:46:28;;;;;;;29.45;17.45;;;6.50;99.90;;;;;;1960936;72;21453;-79
2021/11/20 06:48:55;;;;;;;26.02;16.65;;;6.50;99.90;;;;;;1987900;71;21474;-79
2021/11/20 06:51:21;;;;;;;26.93;16.45;;;6.50;99.90;;;;;;2010427;69;21120;-78
2021/11/20 06:53:47;;;;;;;28.85;17.65;;;6.50;99.90;;;;;;1994032;70;21050;-78
2021/11/20 06:56:25;;;;;;;33.35;17.65;;;6.60;99.90;;;;;;1991753;70;21453;-80
2021/11/20 07:01:17;;;;;;;38.05;16.87;;;6.50;99.90;;;;;;1989526;70;20389;-79
2021/11/20 07:03:43;;;;;;;28.23;17.82;;;6.50;99.90;;;;;;2005002;70;21428;-79
2021/11/20 07:06:09;;;;;;;34.73;19.30;;;6.50;99.90;;;;;;2005787;70;21050;-78
2021/11/20 07:08:35;;;;;;;28.70;18.10;;;6.50;99.90;;;;;;2004241;70;21423;-80
2021/11/20 07:11:02;;;;;;;27.93;18.45;;;6.50;99.90;;;;;;2001294;70;21447;-79
2021/11/20 07:13:28;;;;;;;31.50;19.07;;;6.50;99.90;;;;;;2006781;70;21034;-80
2021/11/20 07:15:54;;;;;;;33.50;18.60;;;6.50;99.90;;;;;;1995946;70;21050;-81
2021/11/20 07:18:22;;;;;;;31.02;18.85;;;6.50;99.90;;;;;;1989022;70;21120;-81
2021/11/20 07:20:48;;;;;;;34.48;18.25;;;6.60;99.90;;;;;;2000720;70;21180;-81
2021/11/20 07:23:14;;;;;;;30.82;16.95;;;6.70;99.90;;;;;;2002061;70;21035;-81
2021/11/20 07:25:40;;;;;;;38.15;18.52;;;6.70;99.90;;;;;;1993236;70;21046;-81
2021/11/20 07:28:06;;;;;;;36.53;17.80;;;6.70;99.90;;;;;;1991301;70;21133;-81
2021/11/20 07:30:32;;;;;;;29.02;18.15;;;6.60;99.90;;;;;;1990701;71;21050;-80
2021/11/20 07:32:59;;;;;;;29.15;17.73;;;6.60;99.90;;;;;;1996716;70;21119;-82
2021/11/20 07:35:25;;;;;;;32.45;17.80;;;6.70;99.90;;;;;;1988686;70;21250;-80
2021/11/20 07:37:51;;;;;;;32.67;17.77;;;6.70;99.90;;;;;;2005447;70;21143;-80
2021/11/20 07:40:17;;;;;;;27.25;17.62;;;6.80;99.90;;;;;;2001333;70;21047;-85
2021/11/20 07:42:44;;;;;;;27.58;15.98;;;6.80;99.90;;;;;;1992168;70;21136;-85
2021/11/20 07:45:10;;;;;;;28.02;16.97;;;6.90;99.90;;;;;;2002812;70;21016;-86
2021/11/20 07:47:36;;;;;;;27.15;16.82;;;6.90;99.90;;;;;;1990726;70;21055;-85
2021/11/20 07:50:02;;;;;;;36.70;17.92;;;6.90;99.90;;;;;;1992384;70;21039;-84
2021/11/20 07:52:28;;;;;;;34.05;19.07;;;6.90;99.90;;;;;;1997282;71;21058;-85
2021/11/20 07:54:54;;;;;;;33.02;18.05;;;6.80;99.90;;;;;;1997789;70;21028;-84
2021/11/20 07:57:20;;;;;;;32.40;18.00;;;6.90;99.90;;;;;;2021035;70;21198;-84
2021/11/20 07:59:46;;;;;;;29.23;17.55;;;6.90;99.90;;;;;;1998054;70;21124;-83
2021/11/20 08:02:13;;;;;;;25.95;17.00;;;6.90;99.90;;;;;;1991024;71;21046;-82
2021/11/20 08:04:40;;;;;;;26.45;17.90;;;6.90;99.90;;;;;;1992809;70;21122;-80
2021/11/20 08:07:06;;;;;;;29.30;17.25;;;7.00;99.90;;;;;;1972691;71;21161;-80
2021/11/20 08:09:32;;;;;;;36.13;17.62;;;7.00;99.90;;;;;;1997832;71;21023;-84
2021/11/20 08:11:58;;;;;;;31.65;18.77;;;6.90;99.90;;;;;;2007459;69;21227;-88
2021/11/20 08:14:25;;;;;;;27.90;17.27;;;6.90;99.90;;;;;;1955582;70;21588;-86
2021/11/20 08:16:51;;;;;;;34.65;17.20;;;7.00;99.90;;;;;;1997671;70;21120;-82
2021/11/20 08:19:17;;;;;;;25.80;16.02;;;7.00;99.90;;;;;;2010288;70;21342;-82
2021/11/20 08:21:43;;;;;;;29.45;17.85;;;7.00;99.90;;;;;;2009979;69;21230;-81
2021/11/20 08:24:09;;;;;;;38.53;18.00;;;7.00;99.90;;;;;;1995449;70;21100;-82
2021/11/20 08:26:36;;;;;;;25.68;17.70;;;7.00;99.90;;;;;;1960250;72;21056;-81
2021/11/20 08:29:02;;;;;;;32.28;17.45;;;7.00;99.90;;;;;;1965560;72;21522;-81
2021/11/20 08:31:28;;;;;;;39.85;17.12;;;7.00;99.90;;;;;;1917479;73;21549;-80
2021/11/20 08:33:54;;;;;;;27.80;17.07;;;7.00;99.90;;;;;;1997623;70;21093;-82
2021/11/20 08:36:21;;;;;;;27.32;17.70;;;7.00;99.90;;;;;;1995341;70;21082;-80
2021/11/20 08:38:47;;;;;;;28.77;17.52;;;7.00;99.90;;;;;;1995877;71;21042;-79
2021/11/20 08:41:14;;;;;;;31.00;17.15;;;7.10;99.90;;;;;;1989724;70;21042;-79
2021/11/20 08:43:40;;;;;;;26.70;17.15;;;7.10;99.90;;;;;;1986193;71;21176;-79
2021/11/20 08:46:06;;;;;;;34.88;17.37;;;7.10;99.90;;;;;;1995270;70;21150;-79
2021/11/20 08:48:32;;;;;;;27.07;16.95;;;7.10;99.90;;;;;;1999897;71;21169;-78
2021/11/20 08:50:58;;;;;;;31.68;16.60;;;7.20;99.90;;;;;;1997087;70;21054;-80
2021/11/20 08:53:24;;;;;;;31.75;17.40;;;7.20;99.90;;;;;;2001679;70;21123;-78
2021/11/20 08:55:51;;;;;;;24.95;17.27;;;7.20;99.90;;;;;;2002437;70;21055;-76
2021/11/20 08:58:17;;;;;;;32.28;17.12;;;7.20;99.90;;;;;;1993380;70;21446;-78
2021/11/20 09:00:43;;;;;;;29.02;16.60;;;7.20;99.90;;;;;;2002072;70;21400;-81
2021/11/20 09:03:09;;;;;;;24.47;16.57;;;7.30;99.90;;;;;;2016117;70;21042;-78
2021/11/20 09:05:35;;;;;;;26.65;17.23;;;7.40;99.90;;;;;;1998610;70;21176;-76
2021/11/20 09:08:03;;;;;;;26.90;16.45;;;7.40;99.90;;;;;;2010185;70;21047;-78
2021/11/20 09:10:29;;;;;;;25.02;17.12;;;7.60;99.90;;;;;;1991018;70;21416;-76
2021/11/20 09:12:57;;;;;;;28.00;17.07;;;7.50;99.90;;;;;;1995056;70;21529;-87
2021/11/20 09:15:23;;;;;;;26.17;16.05;;;7.40;99.90;;;;;;2005630;70;21213;-80
2021/11/20 09:17:49;;;;;;;26.62;17.07;;;7.30;99.90;;;;;;1999630;70;21072;-82
2021/11/20 09:20:22;;;;;;;24.87;16.42;;;7.40;99.90;;;;;;2001755;70;21439;-81
2021/11/20 09:22:48;;;;;;;24.47;16.35;;;7.50;99.90;;;;;;1995252;70;21069;-80
2021/11/20 09:25:14;;;;;;;22.82;15.65;;;7.60;99.90;;;;;;1995621;70;21046;-79
2021/11/20 09:27:42;;;;;;;25.02;16.10;;;7.60;99.90;;;;;;1988007;70;21179;-79
2021/11/20 09:30:08;;;;;;;25.97;17.17;;;7.60;99.90;;;;;;2007367;70;21205;-81
2021/11/20 09:32:34;;;;;;;23.67;15.78;;;7.60;99.90;;;;;;2000893;70;21023;-81
2021/11/20 09:35:01;;;;;;;24.57;16.02;;;7.70;99.90;;;;;;2003239;70;21024;-78
2021/11/20 09:37:27;;;;;;;25.43;16.05;;;7.60;99.90;;;;;;2015036;71;21214;-80
2021/11/20 09:39:53;;;;;;;23.98;15.25;;;7.70;99.90;;;;;;1992133;71;21119;-81
2021/11/20 09:42:19;;;;;;;24.07;15.18;;;7.90;99.90;;;;;;1988822;71;21047;-81
2021/11/20 09:44:46;;;;;;;22.98;15.35;;;7.80;99.90;;;;;;1984612;70;21172;-80
2021/11/20 09:47:14;;;;;;;25.52;14.50;;;7.70;99.90;;;;;;1989372;70;21106;-81
2021/11/20 09:49:40;;;;;;;23.98;14.80;;;7.80;99.90;;;;;;1997973;70;21160;-80
2021/11/20 09:52:07;;;;;;;29.70;15.35;;;7.90;99.90;;;;;;1995510;71;21117;-80
2021/11/20 09:54:35;;;;;;;29.98;15.32;;;8.10;99.90;;;;;;2004297;70;21027;-81
2021/11/20 09:57:02;;;;;;;21.15;14.60;;;8.10;99.90;;;;;;1997554;70;21197;-82
2021/11/20 09:59:28;;;;;;;21.17;13.85;;;8.20;99.90;;;;;;1993054;70;21066;-81
2021/11/20 10:01:54;;;;;;;22.55;14.20;;;8.20;99.90;;;;;;1994518;70;21258;-79
2021/11/20 10:04:21;;;;;;;20.55;13.28;;;8.10;99.90;;;;;;1997398;70;21105;-79
2021/11/20 10:06:47;;;;;;;24.90;14.05;;;8.30;99.90;;;;;;1991028;70;21225;-79
2021/11/20 10:09:13;;;;;;;21.33;13.68;;;8.20;99.90;;;;;;1994314;71;21461;-80
2021/11/20 10:11:39;;;;;;;22.93;13.80;;;8.20;99.90;;;;;;2005798;70;21453;-80
2021/11/20 10:14:05;;;;;;;19.80;14.13;;;8.20;99.90;;;;;;1994998;70;21492;-81
2021/11/20 10:16:31;;;;;;;23.67;13.80;;;8.10;99.90;;;;;;1958584;70;21447;-80
2021/11/20 10:18:58;;;;;;;20.92;13.90;;;8.10;99.90;;;;;;1986125;71;21435;-80
2021/11/20 10:21:25;;;;;;;25.75;13.98;;;8.20;99.90;;;;;;1991117;70;21137;-81
2021/11/20 10:23:51;;;;;;;19.80;14.20;;;8.20;99.90;;;;;;1998903;70;21054;-81
2021/11/20 10:26:19;;;;;;;15.83;12.65;;;8.20;99.90;;;;;;2007549;70;21133;-80
2021/11/20 10:28:45;;;;;;;23.45;13.75;;;8.20;99.90;;;;;;2003061;70;21116;-81
2021/11/20 10:31:13;;;;;;;19.02;13.62;;;8.20;99.90;;;;;;2005568;70;21063;-81
2021/11/20 10:33:39;;;;;;;22.52;13.55;;;8.20;99.90;;;;;;2003791;70;21157;-81
2021/11/20 10:36:05;;;;;;;21.75;13.83;;;8.20;99.90;;;;;;1991518;70;21173;-80
2021/11/20 10:38:31;;;;;;;21.12;13.38;;;8.20;99.90;;;;;;1988841;71;21058;-80
2021/11/20 10:40:57;;;;;;;19.45;13.10;;;8.30;99.90;;;;;;2004911;70;21055;-82
2021/11/20 10:43:23;;;;;;;19.75;12.10;;;8.20;99.90;;;;;;2006069;71;21042;-80
2021/11/20 10:45:49;;;;;;;17.15;11.88;;;8.20;99.90;;;;;;1993693;70;21046;-78
2021/11/20 10:48:16;;;;;;;18.55;13.45;;;8.30;99.90;;;;;;2001887;70;21158;-80
2021/11/20 10:50:44;;;;;;;25.00;13.53;;;8.40;99.90;;;;;;1999917;71;21276;-80
2021/11/20 10:53:10;;;;;;;19.20;13.32;;;8.40;99.90;;;;;;2005346;70;21079;-79
2021/11/20 10:55:36;;;;;;;16.10;11.10;;;8.50;99.90;;;;;;1998496;70;21047;-79
2021/11/20 10:58:02;;;;;;;17.15;11.35;;;8.60;99.90;;;;;;2003053;70;21018;-80
2021/11/20 11:00:28;;;;;;;17.85;10.78;;;8.50;99.90;;;;;;2015036;70;21071;-81
2021/11/20 11:02:54;;;;;;;20.60;11.40;;;8.60;99.90;;;;;;2004768;70;21080;-80
2021/11/20 11:05:20;;;;;;;19.07;10.70;;;8.60;99.90;;;;;;2004721;71;21084;-80
2021/11/20 11:07:46;;;;;;;14.50;10.53;;;8.80;99.90;;;;;;2011177;70;21039;-80
2021/11/20 11:10:12;;;;;;;17.50;11.05;;;8.80;99.90;;;;;;2006769;70;21148;-79
2021/11/20 11:12:39;;;;;;;21.73;10.00;;;8.50;99.90;;;;;;2002010;70;21435;-80
2021/11/20 11:15:05;;;;;;;13.18;9.65;;;8.40;99.90;;;;;;1996904;70;21038;-80
2021/11/20 11:17:31;;;;;;;14.40;9.70;;;8.40;99.90;;;;;;1998626;70;21074;-81
2021/11/20 11:19:57;;;;;;;17.12;8.95;;;8.50;99.90;;;;;;2006320;70;21116;-81
2021/11/20 11:22:23;;;;;;;14.78;9.75;;;8.60;99.90;;;;;;2004464;70;21050;-80
2021/11/20 11:24:50;;;;;;;11.18;7.92;;;8.70;99.90;;;;;;1960820;70;21030;-80
2021/11/20 11:27:16;;;;;;;11.15;8.08;;;8.70;99.90;;;;;;1999846;70;21074;-80
2021/11/20 11:29:42;;;;;;;15.58;7.75;;;8.70;99.90;;;;;;2012318;71;21132;-80
2021/11/20 11:32:08;;;;;;;11.95;8.18;;;8.80;99.90;;;;;;1991859;70;21576;-80
2021/11/20 11:34:34;;;;;;;14.80;8.98;;;8.90;99.90;;;;;;1997981;70;21583;-79
2021/11/20 11:37:01;;;;;;;11.78;8.05;;;9.00;99.90;;;;;;1995182;70;21043;-79
2021/11/20 11:39:27;;;;;;;14.40;8.08;;;8.90;99.90;;;;;;2007176;70;21051;-80
2021/11/20 11:41:53;;;;;;;13.98;10.13;;;8.90;99.90;;;;;;2005701;70;21048;-79
2021/11/20 11:44:21;;;;;;;13.38;7.80;;;8.90;99.90;;;;;;2004811;70;21218;-79
2021/11/20 11:46:47;;;;;;;7.95;6.03;;;8.80;99.90;;;;;;1997811;70;21066;-81
2021/11/20 11:49:15;;;;;;;6.67;4.78;;;8.90;99.90;;;;;;2003142;70;21019;-79
2021/11/20 11:51:43;;;;;;;12.78;5.47;;;8.80;99.90;;;;;;1998863;70;21090;-80
2021/11/20 11:54:09;;;;;;;7.55;5.37;;;8.80;99.90;;;;;;1995282;70;21055;-80
2021/11/20 11:56:35;;;;;;;7.87;5.20;;;8.80;99.90;;;;;;2012686;70;21058;-80
2021/11/20 11:59:02;;;;;;;7.03;4.45;;;8.70;99.90;;;;;;1996605;70;21016;-80
2021/11/20 12:01:29;;;;;;;10.30;5.75;;;8.80;99.90;;;;;;1999477;70;21409;-79
2021/11/20 12:03:55;;;;;;;12.30;6.30;;;8.90;99.90;;;;;;1994962;70;21535;-80
2021/11/20 12:06:22;;;;;;;7.50;6.03;;;8.80;99.90;;;;;;2001849;70;21046;-79
2021/11/20 12:08:48;;;;;;;7.67;5.80;;;8.80;99.90;;;;;;2001869;70;21554;-79
2021/11/20 12:11:14;;;;;;;7.08;5.72;;;8.80;99.90;;;;;;1999407;71;21094;-80
2021/11/20 12:13:41;;;;;;;8.63;5.65;;;8.70;99.90;;;;;;1996825;70;21583;-79
2021/11/20 12:16:07;;;;;;;6.67;5.65;;;8.70;99.90;;;;;;1999203;70;21136;-80
2021/11/20 12:18:39;;;;;;;9.85;6.28;;;8.70;99.90;;;;;;2008094;71;21027;-79
2021/11/20 12:21:05;;;;;;;10.03;6.22;;;8.70;99.90;;;;;;1998457;71;21076;-78
2021/11/20 12:23:47;;;;;;;10.20;6.25;;;8.70;99.90;;;;;;1995387;70;21157;-80
2021/11/20 12:25:59;;;;;;;7.33;5.60;;;8.70;99.90;;;;;;1951751;72;21104;-78
2021/11/20 12:28:25;;;;;;;10.25;6.10;;;8.70;99.90;;;;;;1959184;72;21064;-80
2021/11/20 12:30:52;;;;;;;10.72;7.17;;;8.70;99.90;;;;;;1950312;72;21263;-79
2021/11/20 12:33:18;;;;;;;14.80;7.58;;;8.60;99.90;;;;;;1956838;72;21466;-79
2021/11/20 12:35:44;;;;;;;13.95;7.78;;;8.50;99.90;;;;;;1961602;72;21524;-79